Time;durP1;ratioP1;P1;durP2;ratioP2;P2;SDS_P1;SDS_P2;PMS_P1;PMS_P2;Temp;Humidity;BMP_temperature;BMP_pressure;BME280_temperature;BME280_humidity;BME280_pressure;Samples;Min_cycle;Max_cycle;Signal;HPM_P1;HPM_P2
2023/07/19 00:02:10;;;;;;;6.80;1.83;;;18.50;99.90;;;;;;7279056;19;20206;-78
2023/07/19 00:04:36;;;;;;;7.23;1.97;;;18.50;99.90;;;;;;7279908;19;20201;-78
2023/07/19 00:07:02;;;;;;;5.60;1.90;;;18.40;99.90;;;;;;7278733;19;20533;-78
2023/07/19 00:09:28;;;;;;;5.33;1.73;;;18.30;99.90;;;;;;7279448;19;20188;-77
2023/07/19 00:11:53;;;;;;;6.73;1.90;;;18.20;99.90;;;;;;7300513;19;20572;-78
2023/07/19 00:14:19;;;;;;;6.30;1.73;;;18.20;99.90;;;;;;7279883;19;20189;-78
2023/07/19 00:16:45;;;;;;;6.00;1.80;;;18.20;99.90;;;;;;7277805;19;20200;-79
2023/07/19 00:19:10;;;;;;;5.50;1.97;;;18.20;99.90;;;;;;7280053;19;20264;-78
2023/07/19 00:21:36;;;;;;;7.63;2.10;;;18.20;99.90;;;;;;7277836;19;20185;-78
2023/07/19 00:24:02;;;;;;;9.50;1.90;;;18.10;99.90;;;;;;7278129;19;20574;-78
2023/07/19 00:26:27;;;;;;;8.97;2.03;;;18.00;99.90;;;;;;7278823;19;20185;-78
2023/07/19 00:28:53;;;;;;;5.03;1.83;;;17.80;99.90;;;;;;7301358;19;20625;-78
2023/07/19 00:31:20;;;;;;;7.67;2.13;;;17.70;99.90;;;;;;7277839;19;20241;-78
2023/07/19 00:33:46;;;;;;;6.23;1.87;;;17.50;99.90;;;;;;7280013;19;20548;-78
2023/07/19 00:36:14;;;;;;;7.13;2.20;;;17.40;99.90;;;;;;7278765;19;20185;-78
2023/07/19 00:38:40;;;;;;;8.43;2.57;;;17.40;99.90;;;;;;7278326;19;20192;-78
2023/07/19 00:41:07;;;;;;;7.00;2.50;;;17.30;99.90;;;;;;7277907;19;20185;-78
2023/07/19 00:43:33;;;;;;;11.60;2.73;;;17.20;99.90;;;;;;7278044;19;20196;-78
2023/07/19 00:45:59;;;;;;;7.20;3.40;;;17.40;99.90;;;;;;7277974;19;20261;-78
2023/07/19 00:48:24;;;;;;;10.43;4.17;;;17.40;99.90;;;;;;7299995;19;20188;-78
2023/07/19 00:50:52;;;;;;;10.73;4.83;;;17.50;99.90;;;;;;7277606;19;20188;-78
2023/07/19 00:53:19;;;;;;;10.53;4.53;;;17.50;99.90;;;;;;7278086;19;20253;-78
2023/07/19 00:55:49;;;;;;;8.17;3.80;;;17.40;99.90;;;;;;7276986;19;20659;-78
2023/07/19 00:58:15;;;;;;;9.77;3.73;;;17.40;99.90;;;;;;7278962;19;20197;-78
2023/07/19 01:00:41;;;;;;;10.17;3.30;;;17.30;99.90;;;;;;7277200;19;20754;-78
2023/07/19 01:03:07;;;;;;;10.10;2.93;;;17.20;99.90;;;;;;7276529;19;20201;-79
2023/07/19 01:05:33;;;;;;;5.50;2.63;;;17.10;99.90;;;;;;7278447;19;20313;-78
2023/07/19 01:07:59;;;;;;;9.27;2.90;;;17.00;99.90;;;;;;7282574;19;20186;-77
2023/07/19 01:10:29;;;;;;;7.93;2.40;;;17.00;99.90;;;;;;7306695;19;20759;-78
2023/07/19 01:13:03;;;;;;;5.77;2.47;;;16.90;99.90;;;;;;7285375;19;20189;-78
2023/07/19 01:15:28;;;;;;;5.97;2.37;;;16.90;99.90;;;;;;7260006;19;20207;-78
2023/07/19 01:17:54;;;;;;;9.57;2.73;;;16.80;99.90;;;;;;7299351;19;20748;-78
2023/07/19 01:20:20;;;;;;;6.97;2.30;;;16.70;99.90;;;;;;7273668;19;20189;-78
2023/07/19 01:22:46;;;;;;;6.93;2.20;;;16.60;99.90;;;;;;7275722;19;20677;-78
2023/07/19 01:25:12;;;;;;;5.57;2.33;;;16.60;99.90;;;;;;7277102;19;20210;-78
2023/07/19 01:27:39;;;;;;;8.40;2.33;;;16.50;99.90;;;;;;7275873;19;20196;-78
2023/07/19 01:30:05;;;;;;;6.63;2.47;;;16.50;99.90;;;;;;7273621;19;20236;-77
2023/07/19 01:32:33;;;;;;;5.83;2.00;;;16.30;99.90;;;;;;7277637;19;20300;-77
2023/07/19 01:34:58;;;;;;;6.30;2.30;;;16.30;99.90;;;;;;7280373;19;20187;-79
2023/07/19 01:37:24;;;;;;;7.60;2.00;;;16.30;99.90;;;;;;7304265;19;20257;-78
2023/07/19 01:39:50;;;;;;;6.40;2.20;;;16.30;99.90;;;;;;7283294;19;20185;-78
2023/07/19 01:42:16;;;;;;;9.00;2.37;;;16.40;99.90;;;;;;7283953;19;20681;-78
2023/07/19 01:44:43;;;;;;;9.13;2.60;;;16.40;99.90;;;;;;7284178;19;20197;-78
2023/07/19 01:47:09;;;;;;;7.10;2.20;;;16.40;99.90;;;;;;7282910;19;20184;-78
2023/07/19 01:49:34;;;;;;;9.60;2.23;;;16.40;99.90;;;;;;7283656;19;20185;-78
2023/07/19 01:52:00;;;;;;;5.60;2.20;;;16.50;99.90;;;;;;7284421;19;20189;-77
2023/07/19 01:54:26;;;;;;;9.90;2.73;;;16.60;99.90;;;;;;7299512;19;20184;-77
2023/07/19 01:56:52;;;;;;;11.23;2.40;;;16.60;99.90;;;;;;7294604;19;20193;-78
2023/07/19 01:59:17;;;;;;;11.07;3.00;;;16.60;99.90;;;;;;7282635;19;20189;-79
2023/07/19 02:01:44;;;;;;;6.67;2.50;;;16.80;99.90;;;;;;7282072;19;20200;-78
2023/07/19 02:04:10;;;;;;;9.07;2.77;;;16.80;99.90;;;;;;7281814;19;20193;-79
2023/07/19 02:06:38;;;;;;;7.03;2.50;;;16.90;99.90;;;;;;7282937;19;20196;-78
2023/07/19 02:09:04;;;;;;;9.90;2.73;;;17.10;99.90;;;;;;7282704;19;20189;-79
2023/07/19 02:11:34;;;;;;;7.40;2.53;;;17.10;99.90;;;;;;7282913;19;20188;-79
2023/07/19 02:14:00;;;;;;;8.07;2.37;;;17.00;99.90;;;;;;7283213;19;20180;-78
2023/07/19 02:16:25;;;;;;;10.73;2.60;;;17.10;99.90;;;;;;7303959;19;20196;-78
2023/07/19 02:18:51;;;;;;;10.57;2.40;;;17.20;99.90;;;;;;7281832;19;20645;-79
2023/07/19 02:21:17;;;;;;;5.97;2.50;;;17.10;99.90;;;;;;7282881;19;20657;-78
2023/07/19 02:23:43;;;;;;;10.07;2.67;;;16.90;99.90;;;;;;7280589;19;20648;-78
2023/07/19 02:26:09;;;;;;;8.03;2.53;;;16.80;99.90;;;;;;7281890;19;20660;-78
2023/07/19 02:28:37;;;;;;;10.27;2.80;;;16.80;99.90;;;;;;7283074;19;20188;-79
2023/07/19 02:31:03;;;;;;;9.90;2.33;;;16.90;99.90;;;;;;7281262;19;20193;-77
2023/07/19 02:33:29;;;;;;;6.73;2.23;;;16.90;99.90;;;;;;7280727;19;20196;-78
2023/07/19 02:35:56;;;;;;;12.10;2.40;;;16.90;99.90;;;;;;7303457;19;20177;-79
2023/07/19 02:38:23;;;;;;;6.20;2.13;;;17.00;99.90;;;;;;7281107;19;20198;-78
2023/07/19 02:40:48;;;;;;;11.60;2.50;;;17.10;99.90;;;;;;7282404;19;20192;-78
2023/07/19 02:43:14;;;;;;;8.93;2.40;;;17.10;99.90;;;;;;7282046;19;20220;-79
2023/07/19 02:45:41;;;;;;;7.77;2.70;;;17.10;99.90;;;;;;7281466;19;20660;-79
2023/07/19 02:48:07;;;;;;;8.47;2.53;;;17.10;99.90;;;;;;7281623;19;20223;-78
2023/07/19 02:50:32;;;;;;;6.67;2.97;;;17.10;99.90;;;;;;7280394;19;20637;-78
2023/07/19 02:52:58;;;;;;;7.13;2.50;;;17.20;99.90;;;;;;7282493;19;20215;-77
2023/07/19 02:55:24;;;;;;;5.17;2.50;;;17.30;99.90;;;;;;7302628;19;20193;-79
2023/07/19 02:57:50;;;;;;;6.37;2.30;;;17.10;99.90;;;;;;7281258;19;20193;-78
2023/07/19 03:00:16;;;;;;;7.53;2.50;;;16.90;99.90;;;;;;7281633;19;20202;-79
2023/07/19 03:02:42;;;;;;;7.87;2.30;;;16.90;99.90;;;;;;7279876;19;20207;-78
2023/07/19 03:05:08;;;;;;;8.27;2.03;;;16.80;99.90;;;;;;7280225;19;20610;-78
2023/07/19 03:07:33;;;;;;;9.37;2.53;;;16.80;99.90;;;;;;7282831;19;20673;-78
2023/07/19 03:10:00;;;;;;;8.03;2.87;;;16.90;99.90;;;;;;7281333;19;20277;-78
2023/07/19 03:12:26;;;;;;;9.67;2.50;;;17.00;99.90;;;;;;7304134;19;20221;-79
2023/07/19 03:14:51;;;;;;;7.00;2.57;;;17.10;99.90;;;;;;7282604;19;20324;-79
2023/07/19 03:17:17;;;;;;;8.57;2.40;;;17.10;99.90;;;;;;7285463;19;20541;-79
2023/07/19 03:19:47;;;;;;;8.40;2.60;;;17.20;99.90;;;;;;7280474;19;20272;-78
2023/07/19 03:22:14;;;;;;;7.07;2.60;;;17.10;99.90;;;;;;7281518;19;20197;-78
2023/07/19 03:24:39;;;;;;;9.80;2.57;;;17.10;99.90;;;;;;7281178;19;20214;-79
2023/07/19 03:27:05;;;;;;;5.37;2.47;;;17.10;99.90;;;;;;7281516;19;20740;-79
2023/07/19 03:29:31;;;;;;;10.00;2.53;;;17.10;99.90;;;;;;7282515;19;20586;-78
2023/07/19 03:31:56;;;;;;;9.13;2.77;;;17.10;99.90;;;;;;7298595;19;20302;-78
2023/07/19 03:34:22;;;;;;;6.20;2.50;;;17.10;99.90;;;;;;7300323;19;20275;-79
2023/07/19 03:36:48;;;;;;;6.80;2.17;;;17.10;99.90;;;;;;7284859;19;20260;-78
2023/07/19 03:39:15;;;;;;;6.03;2.40;;;17.20;99.90;;;;;;7284124;19;20188;-79
2023/07/19 03:41:41;;;;;;;8.20;2.50;;;17.20;99.90;;;;;;7282527;19;20209;-79
2023/07/19 03:44:07;;;;;;;5.40;2.10;;;17.20;99.90;;;;;;7278798;19;21056;-78
2023/07/19 03:46:34;;;;;;;6.13;2.40;;;17.30;99.90;;;;;;7279126;19;20537;-78
2023/07/19 03:49:00;;;;;;;7.30;2.10;;;17.30;99.90;;;;;;7278622;19;20187;-78
2023/07/19 03:51:26;;;;;;;6.50;2.40;;;17.30;99.90;;;;;;7302585;19;20189;-79
2023/07/19 03:53:53;;;;;;;7.63;2.20;;;17.20;99.90;;;;;;7279426;19;20191;-79
2023/07/19 03:56:22;;;;;;;7.40;2.57;;;17.30;99.90;;;;;;7276612;19;20188;-79
2023/07/19 03:58:49;;;;;;;8.93;2.87;;;17.40;99.90;;;;;;7281185;19;21514;-79
2023/07/19 04:01:15;;;;;;;8.57;3.00;;;17.50;99.90;;;;;;7278086;19;20195;-79
2023/07/19 04:03:41;;;;;;;10.77;3.37;;;17.60;99.90;;;;;;7279902;19;20192;-79
2023/07/19 04:06:07;;;;;;;6.17;2.67;;;17.60;99.90;;;;;;7279792;19;20636;-79
2023/07/19 04:08:34;;;;;;;9.00;3.33;;;17.70;99.90;;;;;;7279296;19;20225;-79
2023/07/19 04:11:00;;;;;;;11.17;3.23;;;17.80;99.90;;;;;;7279366;19;20637;-78
2023/07/19 04:13:27;;;;;;;8.13;3.40;;;17.90;99.90;;;;;;7301448;19;20212;-79
2023/07/19 04:15:53;;;;;;;11.10;3.33;;;18.00;99.90;;;;;;7278464;19;20192;-79
2023/07/19 04:18:21;;;;;;;7.80;3.07;;;18.10;99.90;;;;;;7278726;19;20193;-79
2023/07/19 04:20:57;;;;;;;8.97;3.60;;;18.10;99.90;;;;;;7278989;19;20690;-79
2023/07/19 04:23:23;;;;;;;10.50;3.47;;;18.20;99.90;;;;;;7278560;19;20180;-79
2023/07/19 04:25:50;;;;;;;8.60;3.30;;;18.20;99.90;;;;;;7278889;19;20188;-79
2023/07/19 04:28:16;;;;;;;12.47;3.90;;;18.30;99.90;;;;;;7278777;19;20193;-79
2023/07/19 04:30:43;;;;;;;10.30;3.63;;;18.40;99.90;;;;;;7278050;19;20193;-79
2023/07/19 04:33:10;;;;;;;9.83;3.77;;;18.40;99.90;;;;;;7279003;19;20656;-79
2023/07/19 04:35:36;;;;;;;15.13;4.27;;;18.50;99.90;;;;;;7278094;19;20200;-78
2023/07/19 04:38:03;;;;;;;8.00;3.50;;;18.50;99.90;;;;;;7278094;19;20193;-79
2023/07/19 04:40:30;;;;;;;9.73;3.70;;;18.30;99.90;;;;;;7278781;19;20214;-78
2023/07/19 04:42:56;;;;;;;10.67;3.77;;;18.30;99.90;;;;;;7299639;19;20682;-79
2023/07/19 04:45:21;;;;;;;10.20;3.77;;;18.10;99.90;;;;;;7280152;19;20297;-79
2023/07/19 04:47:47;;;;;;;12.20;3.57;;;18.20;99.90;;;;;;7278159;19;20269;-79
2023/07/19 04:50:13;;;;;;;8.60;3.47;;;18.20;99.90;;;;;;7277278;19;20200;-79
2023/07/19 04:52:39;;;;;;;13.40;3.83;;;18.20;99.90;;;;;;7277046;19;20193;-79
2023/07/19 04:55:05;;;;;;;10.57;4.10;;;18.20;99.90;;;;;;7277189;19;20530;-78
2023/07/19 04:57:33;;;;;;;14.37;3.70;;;18.20;99.90;;;;;;7277931;19;20660;-79
2023/07/19 04:59:59;;;;;;;14.77;4.00;;;18.20;99.90;;;;;;7278140;19;20198;-79
2023/07/19 05:02:24;;;;;;;14.10;4.27;;;18.20;99.90;;;;;;7298840;19;20197;-79
2023/07/19 05:04:50;;;;;;;11.40;3.50;;;18.30;99.90;;;;;;7278610;19;20904;-79
2023/07/19 05:07:16;;;;;;;10.23;3.40;;;18.30;99.90;;;;;;7277519;19;20195;-79
2023/07/19 05:09:42;;;;;;;10.43;3.50;;;18.30;99.90;;;;;;7284611;19;20191;-78
2023/07/19 05:12:09;;;;;;;15.03;3.93;;;18.10;99.90;;;;;;7285212;19;20534;-79
2023/07/19 05:14:35;;;;;;;8.53;3.23;;;18.10;99.90;;;;;;7284014;19;20292;-79
2023/07/19 05:17:01;;;;;;;15.33;4.20;;;18.20;99.90;;;;;;7283394;19;20756;-78
2023/07/19 05:19:27;;;;;;;10.87;4.03;;;18.30;99.90;;;;;;7290625;19;20198;-79
2023/07/19 05:21:53;;;;;;;14.17;4.07;;;18.40;99.90;;;;;;7306765;19;20652;-79
2023/07/19 05:24:19;;;;;;;13.77;3.97;;;18.60;99.90;;;;;;7282411;19;20230;-78
2023/07/19 05:26:46;;;;;;;9.13;3.80;;;18.80;99.90;;;;;;7284882;19;20194;-79
2023/07/19 05:29:11;;;;;;;12.40;3.77;;;18.80;99.90;;;;;;7285870;19;20189;-79
2023/07/19 05:31:37;;;;;;;11.23;3.60;;;18.90;99.90;;;;;;7284727;19;20219;-79
2023/07/19 05:34:03;;;;;;;9.30;3.77;;;19.00;99.90;;;;;;7285377;19;20181;-78
2023/07/19 05:36:29;;;;;;;9.97;3.90;;;19.10;99.90;;;;;;7284647;19;20217;-78
2023/07/19 05:38:54;;;;;;;10.57;3.70;;;19.30;99.90;;;;;;7305845;19;20189;-79
2023/07/19 05:41:20;;;;;;;12.00;3.77;;;19.60;99.90;;;;;;7284798;19;20208;-79
2023/07/19 05:43:46;;;;;;;12.93;3.57;;;19.80;99.90;;;;;;7285143;19;20185;-79
2023/07/19 05:46:12;;;;;;;9.30;3.20;;;20.00;99.90;;;;;;7284331;19;20198;-79
2023/07/19 05:48:38;;;;;;;14.50;3.73;;;20.00;99.90;;;;;;7285769;19;20184;-79
2023/07/19 05:51:06;;;;;;;7.97;3.50;;;20.10;99.90;;;;;;7284322;19;20197;-79
2023/07/19 05:53:31;;;;;;;11.10;3.40;;;20.10;99.90;;;;;;7283248;19;20308;-78
2023/07/19 05:55:57;;;;;;;9.57;3.53;;;20.20;99.90;;;;;;7292893;19;20190;-78
2023/07/19 05:58:23;;;;;;;8.93;3.70;;;20.30;99.90;;;;;;7306478;19;20313;-79
2023/07/19 06:00:49;;;;;;;9.40;3.40;;;20.60;99.90;;;;;;7283102;19;20826;-79
2023/07/19 06:03:16;;;;;;;9.10;3.30;;;20.60;99.90;;;;;;7283263;19;20195;-79
2023/07/19 06:05:43;;;;;;;12.13;3.67;;;20.70;99.90;;;;;;7283208;19;20189;-79
2023/07/19 06:08:10;;;;;;;9.17;3.37;;;20.80;99.90;;;;;;7283747;19;20192;-79
2023/07/19 06:10:36;;;;;;;10.40;3.23;;;20.80;99.90;;;;;;7282665;19;20188;-79
2023/07/19 06:13:03;;;;;;;11.97;3.67;;;20.90;99.90;;;;;;7285030;19;20200;-79
2023/07/19 06:15:30;;;;;;;10.50;3.27;;;20.90;99.90;;;;;;7283362;19;20192;-77
2023/07/19 06:17:56;;;;;;;10.43;3.87;;;21.00;99.90;;;;;;7305213;19;20200;-78
2023/07/19 06:20:22;;;;;;;13.90;3.90;;;21.10;99.90;;;;;;7281929;19;20189;-79
2023/07/19 06:22:47;;;;;;;9.77;3.37;;;21.20;99.90;;;;;;7283243;19;20190;-79
2023/07/19 06:25:14;;;;;;;8.57;3.30;;;21.40;99.90;;;;;;7281746;19;20201;-79
2023/07/19 06:27:40;;;;;;;12.83;3.27;;;21.60;99.90;;;;;;7283643;19;20185;-77
2023/07/19 06:30:06;;;;;;;10.80;3.20;;;21.80;99.90;;;;;;7297390;19;20193;-78
2023/07/19 06:32:32;;;;;;;10.67;3.20;;;22.00;99.90;;;;;;7289101;19;20234;-78
2023/07/19 06:34:58;;;;;;;11.23;3.13;;;22.20;99.90;;;;;;7288922;19;20726;-78
2023/07/19 06:37:23;;;;;;;9.87;3.00;;;22.20;99.90;;;;;;7305311;19;20193;-78
2023/07/19 06:39:49;;;;;;;14.37;3.10;;;22.10;99.90;;;;;;7281412;19;20192;-78
2023/07/19 06:42:15;;;;;;;11.70;3.27;;;21.90;99.90;;;;;;7283983;19;20197;-78
2023/07/19 06:44:40;;;;;;;13.20;2.83;;;21.80;99.90;;;;;;7283381;19;20654;-78
2023/07/19 06:47:06;;;;;;;9.77;2.83;;;21.80;99.90;;;;;;7283192;19;20191;-79
2023/07/19 06:49:32;;;;;;;11.23;3.50;;;21.80;99.90;;;;;;7282957;19;20272;-78
2023/07/19 06:51:57;;;;;;;9.63;2.50;;;21.70;99.90;;;;;;7291277;19;20212;-77
2023/07/19 06:54:23;;;;;;;9.80;2.80;;;21.70;99.90;;;;;;7304036;19;20637;-78
2023/07/19 06:56:49;;;;;;;8.73;2.43;;;21.60;99.90;;;;;;7283811;19;20181;-79
2023/07/19 06:59:15;;;;;;;11.83;2.60;;;21.50;99.90;;;;;;7283480;19;20196;-79
2023/07/19 07:01:40;;;;;;;7.40;1.77;;;21.20;99.90;;;;;;7281692;19;20192;-78
2023/07/19 07:04:09;;;;;;;8.93;2.20;;;21.20;99.90;;;;;;7282716;19;20200;-78
2023/07/19 07:06:35;;;;;;;10.50;1.97;;;21.30;99.90;;;;;;7281657;19;20751;-79
2023/07/19 07:09:01;;;;;;;9.10;1.90;;;21.50;99.90;;;;;;7282097;19;20228;-77
2023/07/19 07:11:27;;;;;;;9.53;2.13;;;21.70;99.90;;;;;;7297503;19;20644;-77
2023/07/19 07:13:52;;;;;;;10.90;2.20;;;21.80;99.90;;;;;;7295279;19;20197;-78
2023/07/19 07:16:18;;;;;;;7.73;2.10;;;22.00;99.90;;;;;;7281280;19;20650;-78
2023/07/19 07:18:44;;;;;;;7.03;2.07;;;22.00;99.90;;;;;;7281693;19;20189;-79
2023/07/19 07:21:10;;;;;;;10.57;1.93;;;22.30;99.90;;;;;;7282102;19;20180;-78
2023/07/19 07:23:36;;;;;;;8.87;2.27;;;23.20;99.90;;;;;;7279595;19;20212;-78
2023/07/19 07:26:01;;;;;;;10.27;2.27;;;24.10;99.90;;;;;;7282289;19;20184;-78
2023/07/19 07:28:27;;;;;;;7.97;1.90;;;24.70;99.90;;;;;;7296004;19;20877;-78
2023/07/19 07:30:53;;;;;;;7.90;1.60;;;25.00;99.90;;;;;;7295380;19;20185;-79
2023/07/19 07:33:21;;;;;;;4.87;1.70;;;26.20;99.90;;;;;;7280143;19;20200;-79
2023/07/19 07:35:47;;;;;;;7.88;1.90;;;27.10;99.90;;;;;;7282046;19;20321;-79
2023/07/19 07:38:13;;;;;;;9.95;1.98;;;26.50;99.90;;;;;;7280442;19;20188;-78
2023/07/19 07:40:38;;;;;;;9.50;1.77;;;26.50;99.90;;;;;;7281694;19;20180;-78
2023/07/19 07:43:04;;;;;;;5.28;1.70;;;27.30;99.90;;;;;;7282655;19;20238;-78
2023/07/19 07:45:29;;;;;;;9.07;2.05;;;27.50;99.90;;;;;;7287268;19;20184;-78
2023/07/19 07:47:55;;;;;;;6.32;1.83;;;27.60;99.90;;;;;;7306862;19;20563;-78
2023/07/19 07:50:22;;;;;;;6.40;1.67;;;28.30;99.90;;;;;;7283712;19;20184;-79
2023/07/19 07:52:48;;;;;;;5.72;1.40;;;29.80;99.90;;;;;;7284692;19;20188;-79
2023/07/19 07:55:14;;;;;;;7.97;1.75;;;31.20;99.90;;;;;;7282240;19;20180;-79
2023/07/19 07:57:40;;;;;;;5.22;1.33;;;32.40;99.20;;;;;;7279757;19;20556;-78
2023/07/19 08:00:06;;;;;;;7.32;1.77;;;34.20;95.70;;;;;;7283130;19;20703;-78
2023/07/19 08:02:34;;;;;;;6.72;1.50;;;35.60;92.30;;;;;;7279407;19;20193;-79
2023/07/19 08:05:00;;;;;;;6.18;1.27;;;36.80;85.10;;;;;;7280435;19;20193;-78
2023/07/19 08:07:26;;;;;;;6.82;1.52;;;37.10;79.90;;;;;;7302200;19;20577;-78
2023/07/19 08:09:52;;;;;;;8.30;1.50;;;37.40;73.60;;;;;;7281230;19;20193;-78
2023/07/19 08:12:19;;;;;;;6.20;1.23;;;37.70;71.10;;;;;;7281213;19;20182;-78
2023/07/19 08:14:45;;;;;;;4.93;1.00;;;37.60;66.60;;;;;;7281551;19;20312;-78
2023/07/19 08:17:11;;;;;;;6.40;1.08;;;37.30;65.20;;;;;;7280639;19;20196;-78
2023/07/19 08:19:36;;;;;;;5.72;0.90;;;37.30;64.60;;;;;;7279282;19;20197;-78
2023/07/19 08:22:04;;;;;;;4.28;1.00;;;36.80;59.90;;;;;;7279515;19;20683;-77
2023/07/19 08:24:29;;;;;;;4.13;1.08;;;36.90;62.70;;;;;;7280259;19;20258;-78
2023/07/19 08:26:55;;;;;;;3.25;1.10;;;37.30;61.00;;;;;;7302194;19;20185;-78
2023/07/19 08:29:21;;;;;;;4.38;1.35;;;37.60;60.70;;;;;;7279638;19;20907;-78
2023/07/19 08:31:46;;;;;;;4.57;0.95;;;36.80;58.90;;;;;;7280071;19;20274;-79
2023/07/19 08:34:12;;;;;;;5.10;1.17;;;36.00;57.40;;;;;;7279005;19;20224;-79
2023/07/19 08:36:38;;;;;;;5.05;1.00;;;36.30;60.20;;;;;;7278807;19;20201;-78
2023/07/19 08:39:03;;;;;;;5.82;1.50;;;36.70;59.80;;;;;;7279831;19;20232;-78
2023/07/19 08:41:32;;;;;;;7.55;1.80;;;37.00;59.10;;;;;;7279414;19;20770;-78
2023/07/19 08:43:58;;;;;;;8.07;1.02;;;35.50;59.40;;;;;;7295072;19;20648;-78
2023/07/19 08:46:24;;;;;;;4.55;1.02;;;36.70;59.50;;;;;;7309796;19;20192;-79
2023/07/19 08:48:50;;;;;;;7.50;1.20;;;37.00;58.90;;;;;;7286884;19;20184;-79
2023/07/19 08:51:17;;;;;;;9.10;1.25;;;36.90;56.50;;;;;;7283579;19;20204;-79
2023/07/19 08:53:44;;;;;;;5.65;1.05;;;36.50;56.40;;;;;;7286831;19;20579;-78
2023/07/19 08:56:14;;;;;;;6.15;1.30;;;35.70;58.50;;;;;;7285297;19;20189;-78
2023/07/19 08:58:40;;;;;;;7.10;1.33;;;35.30;56.40;;;;;;7285638;19;20200;-78
2023/07/19 09:01:11;;;;;;;5.80;0.95;;;36.00;56.70;;;;;;7286138;19;20189;-78
2023/07/19 09:03:37;;;;;;;3.85;0.93;;;35.80;57.30;;;;;;7286045;19;20569;-78
2023/07/19 09:06:03;;;;;;;4.88;1.20;;;36.30;57.40;;;;;;7284611;19;20192;-78
2023/07/19 09:08:39;;;;;;;2.95;0.80;;;35.70;58.60;;;;;;7288620;19;20200;-74
2023/07/19 09:11:06;;;;;;;4.07;0.98;;;36.40;59.70;;;;;;7283507;19;20272;-74
2023/07/19 09:13:33;;;;;;;5.50;1.23;;;37.30;57.40;;;;;;7284124;19;20302;-75
2023/07/19 09:16:02;;;;;;;5.32;1.10;;;36.80;59.00;;;;;;7285850;19;20560;-73
2023/07/19 09:18:30;;;;;;;6.50;1.10;;;37.80;59.10;;;;;;7298959;19;20185;-73
2023/07/19 09:20:59;;;;;;;5.05;1.02;;;37.80;59.20;;;;;;7305197;19;20288;-74
2023/07/19 09:23:25;;;;;;;4.40;1.02;;;38.00;59.20;;;;;;7283790;19;20184;-73
2023/07/19 09:25:55;;;;;;;5.57;0.75;;;36.40;59.30;;;;;;7283929;19;20181;-74
2023/07/19 09:28:24;;;;;;;3.22;0.80;;;34.80;63.10;;;;;;7284564;19;20224;-74
2023/07/19 09:31:04;;;;;;;7.68;1.20;;;34.00;65.40;;;;;;7285968;19;20185;-73
2023/07/19 09:33:30;;;;;;;4.50;0.90;;;32.80;67.40;;;;;;7263541;19;20188;-74
2023/07/19 09:35:57;;;;;;;6.82;0.80;;;31.60;70.50;;;;;;7306000;19;20209;-74
2023/07/19 09:38:24;;;;;;;5.47;0.90;;;30.00;74.60;;;;;;7283373;19;20193;-73
2023/07/19 09:40:52;;;;;;;4.93;0.95;;;28.00;83.20;;;;;;7283958;19;20188;-74
2023/07/19 09:43:19;;;;;;;3.47;0.75;;;27.70;86.50;;;;;;7285782;19;20197;-73
2023/07/19 09:45:47;;;;;;;5.57;0.93;;;26.70;90.50;;;;;;7285072;19;20644;-73
2023/07/19 09:48:16;;;;;;;5.15;1.23;;;25.60;93.50;;;;;;7283238;19;20208;-74
2023/07/19 09:50:42;;;;;;;2.35;0.65;;;25.20;95.80;;;;;;7279223;19;20320;-73
2023/07/19 09:53:12;;;;;;;5.50;1.02;;;25.50;98.50;;;;;;7282325;19;20192;-73
2023/07/19 09:55:39;;;;;;;3.10;0.52;;;25.60;99.30;;;;;;7278912;19;20188;-72
2023/07/19 09:58:11;;;;;;;3.47;0.80;;;26.10;99.40;;;;;;7280862;19;20204;-73
2023/07/19 10:00:38;;;;;;;3.80;0.80;;;27.00;99.90;;;;;;7282508;19;20309;-73
2023/07/19 10:03:07;;;;;;;2.30;0.50;;;27.40;99.20;;;;;;7282251;19;20207;-74
2023/07/19 10:05:34;;;;;;;5.07;0.88;;;27.80;98.40;;;;;;7282350;19;20189;-73
2023/07/19 10:08:04;;;;;;;3.30;0.50;;;27.20;98.40;;;;;;7281438;19;20355;-74
2023/07/19 10:10:38;;;;;;;2.47;0.80;;;26.80;99.70;;;;;;7281770;19;20202;-74
2023/07/19 10:13:04;;;;;;;6.63;1.02;;;26.50;99.90;;;;;;7281538;19;20185;-74
2023/07/19 10:15:30;;;;;;;3.42;0.70;;;26.70;99.90;;;;;;7281749;19;20586;-73
2023/07/19 10:18:00;;;;;;;4.90;0.75;;;26.20;99.90;;;;;;7304054;19;20185;-74
2023/07/19 10:20:33;;;;;;;7.28;1.00;;;26.50;99.90;;;;;;7282515;19;20184;-73
2023/07/19 10:23:06;;;;;;;2.55;0.63;;;27.20;99.90;;;;;;7267384;19;20288;-73
2023/07/19 10:25:36;;;;;;;4.38;0.75;;;27.00;99.90;;;;;;7281108;19;20197;-74
2023/07/19 10:28:08;;;;;;;4.80;0.60;;;26.60;99.90;;;;;;7282384;19;20192;-74
2023/07/19 10:30:46;;;;;;;6.18;0.68;;;26.80;99.90;;;;;;7280792;19;20193;-74
2023/07/19 10:33:13;;;;;;;3.33;0.80;;;26.90;99.90;;;;;;7282215;19;20210;-74
2023/07/19 10:35:39;;;;;;;3.50;0.80;;;27.10;99.90;;;;;;7280896;19;20589;-74
2023/07/19 10:38:05;;;;;;;3.60;0.80;;;27.70;99.90;;;;;;7278861;19;20229;-74
2023/07/19 10:40:31;;;;;;;5.10;1.00;;;28.20;99.90;;;;;;7282838;19;20768;-74
2023/07/19 10:42:56;;;;;;;4.82;0.80;;;28.30;99.90;;;;;;7302788;19;20210;-74
2023/07/19 10:45:25;;;;;;;3.13;0.68;;;27.90;99.90;;;;;;7281357;19;20193;-74
2023/07/19 10:47:52;;;;;;;5.13;0.90;;;27.40;99.90;;;;;;7282492;19;20181;-74
2023/07/19 10:50:17;;;;;;;4.55;0.80;;;27.00;99.90;;;;;;7279864;19;20707;-73
2023/07/19 10:52:46;;;;;;;7.90;1.10;;;26.80;99.90;;;;;;7280390;19;20263;-74
2023/07/19 10:55:13;;;;;;;5.32;0.90;;;26.60;99.90;;;;;;7281446;19;20195;-73
2023/07/19 10:57:39;;;;;;;3.33;0.90;;;26.70;99.90;;;;;;7279879;19;20189;-75
2023/07/19 11:00:12;;;;;;;3.88;1.00;;;27.80;99.90;;;;;;7281407;19;20192;-75
2023/07/19 11:02:39;;;;;;;6.13;1.30;;;28.70;99.90;;;;;;7279525;19;20197;-74
2023/07/19 11:05:09;;;;;;;2.55;0.88;;;28.60;99.30;;;;;;7279031;19;20185;-75
2023/07/19 11:07:35;;;;;;;4.03;1.10;;;28.20;99.50;;;;;;7279119;19;20657;-75
2023/07/19 11:10:03;;;;;;;4.00;1.02;;;28.20;98.60;;;;;;7279696;19;20651;-75
2023/07/19 11:12:30;;;;;;;3.17;0.98;;;27.50;97.70;;;;;;7277778;19;20211;-75
2023/07/19 11:15:01;;;;;;;3.28;1.00;;;27.40;99.30;;;;;;7283014;19;20666;-75
2023/07/19 11:17:28;;;;;;;4.35;1.10;;;27.20;98.70;;;;;;7302944;19;20212;-76
2023/07/19 11:19:55;;;;;;;5.10;1.10;;;26.80;99.40;;;;;;7280489;19;20627;-75
2023/07/19 11:22:23;;;;;;;3.10;0.93;;;26.70;99.90;;;;;;7279765;19;20201;-75
2023/07/19 11:24:53;;;;;;;3.38;0.93;;;26.60;99.90;;;;;;7279646;19;20552;-75
2023/07/19 11:27:31;;;;;;;3.72;1.10;;;26.80;99.90;;;;;;7278846;19;20182;-75
2023/07/19 11:29:57;;;;;;;2.78;1.20;;;27.30;99.90;;;;;;7281289;19;20199;-73
2023/07/19 11:32:23;;;;;;;4.78;1.13;;;27.50;99.90;;;;;;7281160;19;20219;-74
2023/07/19 11:34:56;;;;;;;5.32;1.40;;;27.90;99.50;;;;;;7279613;19;20209;-73
2023/07/19 11:37:31;;;;;;;5.38;1.17;;;27.50;99.10;;;;;;7279566;19;20189;-74
2023/07/19 11:39:58;;;;;;;4.07;1.25;;;27.50;99.90;;;;;;7278410;19;20198;-73
2023/07/19 11:42:43;;;;;;;7.07;1.70;;;28.20;99.20;;;;;;7298628;19;20181;-74
2023/07/19 11:45:18;;;;;;;3.80;1.20;;;28.60;97.20;;;;;;7177016;19;2006007;-74
2023/07/19 11:47:48;;;;;;;5.07;1.25;;;28.20;98.20;;;;;;7279012;19;20600;-74
2023/07/19 11:50:15;;;;;;;3.28;1.30;;;28.20;97.20;;;;;;7276638;19;20196;-74
2023/07/19 11:52:48;;;;;;;4.68;1.52;;;28.90;97.20;;;;;;7279334;19;20568;-75
2023/07/19 11:55:15;;;;;;;5.93;1.58;;;29.20;97.20;;;;;;7278739;19;20763;-74
2023/07/19 11:57:42;;;;;;;8.68;2.80;;;28.40;95.80;;;;;;7276280;19;20185;-75
2023/07/19 12:00:09;;;;;;;5.25;1.63;;;27.90;96.40;;;;;;7279163;19;20185;-73
2023/07/19 12:02:36;;;;;;;5.10;1.83;;;27.50;97.30;;;;;;7282432;19;20612;-75
2023/07/19 12:05:05;;;;;;;4.55;1.40;;;27.20;97.10;;;;;;7281073;19;20200;-73
2023/07/19 12:07:32;;;;;;;7.22;1.77;;;26.80;97.40;;;;;;7282349;19;20185;-73
2023/07/19 12:09:58;;;;;;;5.78;1.77;;;26.30;98.40;;;;;;7301690;19;20526;-73
2023/07/19 12:12:31;;;;;;;4.50;1.88;;;25.60;99.50;;;;;;7258078;19;20563;-73
2023/07/19 12:15:01;;;;;;;7.30;1.75;;;25.30;99.90;;;;;;7302838;19;20195;-73
2023/07/19 12:17:27;;;;;;;7.88;2.00;;;24.80;99.90;;;;;;7276612;19;20200;-74
2023/07/19 12:19:53;;;;;;;7.75;1.83;;;25.10;99.90;;;;;;7280230;19;20546;-73
2023/07/19 12:22:19;;;;;;;7.45;2.00;;;25.40;99.90;;;;;;7278652;19;20276;-73
2023/07/19 12:24:46;;;;;;;6.97;2.05;;;25.50;99.90;;;;;;7278422;19;20203;-73
2023/07/19 12:27:12;;;;;;;8.50;1.88;;;25.60;99.90;;;;;;7278549;19;20205;-74
2023/07/19 12:29:37;;;;;;;7.47;1.70;;;25.80;99.90;;;;;;7278472;19;20193;-74
2023/07/19 12:32:04;;;;;;;10.38;2.00;;;26.20;99.90;;;;;;7278777;19;20192;-74
2023/07/19 12:34:29;;;;;;;6.28;2.10;;;26.30;99.90;;;;;;7280337;19;20192;-73
2023/07/19 12:36:55;;;;;;;6.10;1.80;;;26.40;99.90;;;;;;7299497;19;20180;-74
2023/07/19 12:39:24;;;;;;;8.32;1.90;;;26.60;99.90;;;;;;7278096;19;20213;-74
2023/07/19 12:41:52;;;;;;;6.95;2.22;;;26.90;99.90;;;;;;7276093;19;20802;-74
2023/07/19 12:44:27;;;;;;;5.20;1.60;;;26.90;99.90;;;;;;7275304;19;20205;-73